sensor_id;sensor_type;location;lat;lon;timestamp;P1;durP1;ratioP1;P2;durP2;ratioP2
15476;SDS011;7840;42.702;23.296;2023-02-15T00:00:24;39.60;;;29.60;;
15476;SDS011;7840;42.702;23.296;2023-02-15T00:02:51;42.63;;;28.43;;
15476;SDS011;7840;42.702;23.296;2023-02-15T00:05:19;41.97;;;29.37;;
15476;SDS011;7840;42.702;23.296;2023-02-15T00:07:46;36.73;;;28.07;;
15476;SDS011;7840;42.702;23.296;2023-02-15T00:10:14;43.60;;;32.63;;
15476;SDS011;7840;42.702;23.296;2023-02-15T00:12:55;41.03;;;30.00;;
15476;SDS011;7840;42.702;23.296;2023-02-15T00:15:28;40.43;;;30.20;;
15476;SDS011;7840;42.702;23.296;2023-02-15T00:17:56;39.67;;;27.90;;
15476;SDS011;7840;42.702;23.296;2023-02-15T00:20:24;41.43;;;28.73;;
15476;SDS011;7840;42.702;23.296;2023-02-15T00:22:52;39.27;;;28.10;;
15476;SDS011;7840;42.702;23.296;2023-02-15T00:25:38;41.43;;;30.47;;
15476;SDS011;7840;42.702;23.296;2023-02-15T00:28:06;37.93;;;28.23;;
15476;SDS011;7840;42.702;23.296;2023-02-15T00:30:35;42.87;;;30.33;;
15476;SDS011;7840;42.702;23.296;2023-02-15T00:33:03;38.03;;;27.57;;
15476;SDS011;7840;42.702;23.296;2023-02-15T00:35:33;40.50;;;28.23;;
15476;SDS011;7840;42.702;23.296;2023-02-15T00:38:04;39.63;;;28.17;;
15476;SDS011;7840;42.702;23.296;2023-02-15T00:40:31;40.37;;;29.67;;
15476;SDS011;7840;42.702;23.296;2023-02-15T00:42:59;38.53;;;28.87;;
15476;SDS011;7840;42.702;23.296;2023-02-15T00:45:27;38.70;;;28.07;;
15476;SDS011;7840;42.702;23.296;2023-02-15T00:47:56;43.10;;;29.67;;
15476;SDS011;7840;42.702;23.296;2023-02-15T00:50:24;38.83;;;29.80;;
15476;SDS011;7840;42.702;23.296;2023-02-15T00:52:52;39.37;;;28.63;;
15476;SDS011;7840;42.702;23.296;2023-02-15T00:55:19;39.50;;;28.50;;
15476;SDS011;7840;42.702;23.296;2023-02-15T00:57:59;39.70;;;29.73;;
15476;SDS011;7840;42.702;23.296;2023-02-15T01:00:28;40.70;;;29.50;;
15476;SDS011;7840;42.702;23.296;2023-02-15T01:02:57;38.40;;;27.07;;
15476;SDS011;7840;42.702;23.296;2023-02-15T01:05:26;37.67;;;27.50;;
15476;SDS011;7840;42.702;23.296;2023-02-15T01:08:11;38.37;;;27.30;;
15476;SDS011;7840;42.702;23.296;2023-02-15T01:10:38;40.03;;;28.37;;
15476;SDS011;7840;42.702;23.296;2023-02-15T01:13:08;40.10;;;28.43;;
15476;SDS011;7840;42.702;23.296;2023-02-15T01:15:35;39.07;;;27.67;;
15476;SDS011;7840;42.702;23.296;2023-02-15T01:18:04;39.53;;;28.83;;
15476;SDS011;7840;42.702;23.296;2023-02-15T01:20:34;39.33;;;27.93;;
15476;SDS011;7840;42.702;23.296;2023-02-15T01:23:06;40.30;;;28.07;;
15476;SDS011;7840;42.702;23.296;2023-02-15T01:25:34;40.43;;;28.70;;
15476;SDS011;7840;42.702;23.296;2023-02-15T01:28:02;38.77;;;27.77;;
15476;SDS011;7840;42.702;23.296;2023-02-15T01:30:34;41.77;;;29.50;;
15476;SDS011;7840;42.702;23.296;2023-02-15T01:33:17;39.03;;;29.10;;
15476;SDS011;7840;42.702;23.296;2023-02-15T01:35:45;38.80;;;27.90;;
15476;SDS011;7840;42.702;23.296;2023-02-15T01:38:13;42.70;;;30.27;;
15476;SDS011;7840;42.702;23.296;2023-02-15T01:40:41;40.17;;;28.80;;
15476;SDS011;7840;42.702;23.296;2023-02-15T01:43:09;36.77;;;28.20;;
15476;SDS011;7840;42.702;23.296;2023-02-15T01:45:39;37.90;;;28.80;;
15476;SDS011;7840;42.702;23.296;2023-02-15T01:48:14;39.03;;;28.07;;
15476;SDS011;7840;42.702;23.296;2023-02-15T01:50:49;40.10;;;29.40;;
15476;SDS011;7840;42.702;23.296;2023-02-15T01:53:21;39.70;;;28.60;;
15476;SDS011;7840;42.702;23.296;2023-02-15T01:55:52;39.37;;;27.80;;
15476;SDS011;7840;42.702;23.296;2023-02-15T01:58:27;42.13;;;29.57;;
15476;SDS011;7840;42.702;23.296;2023-02-15T02:00:58;38.83;;;27.50;;
15476;SDS011;7840;42.702;23.296;2023-02-15T02:03:34;37.90;;;28.73;;
15476;SDS011;7840;42.702;23.296;2023-02-15T02:06:08;36.03;;;26.93;;
15476;SDS011;7840;42.702;23.296;2023-02-15T02:08:37;43.53;;;29.17;;
15476;SDS011;7840;42.702;23.296;2023-02-15T02:11:09;40.03;;;28.93;;
15476;SDS011;7840;42.702;23.296;2023-02-15T02:13:37;41.03;;;30.23;;
15476;SDS011;7840;42.702;23.296;2023-02-15T02:16:23;41.27;;;30.97;;
15476;SDS011;7840;42.702;23.296;2023-02-15T02:19:03;43.23;;;31.30;;
15476;SDS011;7840;42.702;23.296;2023-02-15T02:22:06;41.63;;;30.77;;
15476;SDS011;7840;42.702;23.296;2023-02-15T02:25:01;39.70;;;29.07;;
15476;SDS011;7840;42.702;23.296;2023-02-15T02:27:49;40.50;;;29.17;;
15476;SDS011;7840;42.702;23.296;2023-02-15T02:30:35;38.03;;;28.43;;
15476;SDS011;7840;42.702;23.296;2023-02-15T02:33:19;39.47;;;27.70;;
15476;SDS011;7840;42.702;23.296;2023-02-15T02:36:03;37.20;;;27.40;;
15476;SDS011;7840;42.702;23.296;2023-02-15T02:38:43;37.50;;;27.10;;
15476;SDS011;7840;42.702;23.296;2023-02-15T02:41:30;36.70;;;25.83;;
15476;SDS011;7840;42.702;23.296;2023-02-15T02:44:04;38.93;;;26.73;;
15476;SDS011;7840;42.702;23.296;2023-02-15T02:46:46;40.53;;;27.97;;
15476;SDS011;7840;42.702;23.296;2023-02-15T02:49:29;37.87;;;29.33;;
15476;SDS011;7840;42.702;23.296;2023-02-15T02:52:01;38.97;;;27.60;;
15476;SDS011;7840;42.702;23.296;2023-02-15T02:54:34;37.77;;;27.37;;
15476;SDS011;7840;42.702;23.296;2023-02-15T02:57:06;36.27;;;26.47;;
15476;SDS011;7840;42.702;23.296;2023-02-15T02:59:38;36.13;;;28.57;;
15476;SDS011;7840;42.702;23.296;2023-02-15T03:02:11;35.17;;;26.27;;
15476;SDS011;7840;42.702;23.296;2023-02-15T03:04:45;39.33;;;26.20;;
15476;SDS011;7840;42.702;23.296;2023-02-15T03:07:23;34.17;;;25.90;;
15476;SDS011;7840;42.702;23.296;2023-02-15T03:09:53;34.10;;;25.73;;
15476;SDS011;7840;42.702;23.296;2023-02-15T03:12:24;33.10;;;24.60;;
15476;SDS011;7840;42.702;23.296;2023-02-15T03:14:55;32.90;;;25.37;;
15476;SDS011;7840;42.702;23.296;2023-02-15T03:17:28;38.10;;;26.60;;
15476;SDS011;7840;42.702;23.296;2023-02-15T03:20:01;35.07;;;25.40;;
15476;SDS011;7840;42.702;23.296;2023-02-15T03:22:33;33.77;;;24.30;;
15476;SDS011;7840;42.702;23.296;2023-02-15T03:25:21;32.50;;;25.77;;
15476;SDS011;7840;42.702;23.296;2023-02-15T03:27:58;32.00;;;24.73;;
15476;SDS011;7840;42.702;23.296;2023-02-15T03:30:32;31.50;;;24.10;;
15476;SDS011;7840;42.702;23.296;2023-02-15T03:33:04;31.23;;;23.57;;
15476;SDS011;7840;42.702;23.296;2023-02-15T03:35:50;33.73;;;24.47;;
15476;SDS011;7840;42.702;23.296;2023-02-15T03:38:29;31.53;;;23.97;;
15476;SDS011;7840;42.702;23.296;2023-02-15T03:41:01;34.30;;;24.97;;
15476;SDS011;7840;42.702;23.296;2023-02-15T03:43:38;32.43;;;24.47;;
15476;SDS011;7840;42.702;23.296;2023-02-15T03:46:13;32.00;;;25.13;;
15476;SDS011;7840;42.702;23.296;2023-02-15T03:48:47;30.53;;;23.30;;
15476;SDS011;7840;42.702;23.296;2023-02-15T03:51:21;32.03;;;23.20;;
15476;SDS011;7840;42.702;23.296;2023-02-15T03:54:05;30.23;;;23.63;;
15476;SDS011;7840;42.702;23.296;2023-02-15T03:56:36;30.93;;;24.00;;
15476;SDS011;7840;42.702;23.296;2023-02-15T03:59:28;31.60;;;22.80;;
15476;SDS011;7840;42.702;23.296;2023-02-15T04:02:20;32.70;;;23.83;;
15476;SDS011;7840;42.702;23.296;2023-02-15T04:04:50;31.00;;;22.50;;
15476;SDS011;7840;42.702;23.296;2023-02-15T04:07:22;32.77;;;25.27;;
15476;SDS011;7840;42.702;23.296;2023-02-15T04:09:50;33.17;;;23.73;;
15476;SDS011;7840;42.702;23.296;2023-02-15T04:12:35;33.17;;;24.83;;
15476;SDS011;7840;42.702;23.296;2023-02-15T04:15:02;32.87;;;26.70;;
15476;SDS011;7840;42.702;23.296;2023-02-15T04:17:48;33.93;;;25.23;;
15476;SDS011;7840;42.702;23.296;2023-02-15T04:20:15;33.30;;;24.70;;
15476;SDS011;7840;42.702;23.296;2023-02-15T04:23:03;32.37;;;25.70;;
15476;SDS011;7840;42.702;23.296;2023-02-15T04:25:50;30.73;;;23.83;;
15476;SDS011;7840;42.702;23.296;2023-02-15T04:28:17;30.53;;;23.03;;
15476;SDS011;7840;42.702;23.296;2023-02-15T04:30:46;32.37;;;24.20;;
15476;SDS011;7840;42.702;23.296;2023-02-15T04:33:16;33.40;;;24.07;;
15476;SDS011;7840;42.702;23.296;2023-02-15T04:35:43;31.43;;;24.23;;
15476;SDS011;7840;42.702;23.296;2023-02-15T04:38:12;30.40;;;23.47;;
15476;SDS011;7840;42.702;23.296;2023-02-15T04:40:40;31.97;;;25.77;;
15476;SDS011;7840;42.702;23.296;2023-02-15T04:43:07;33.07;;;25.37;;
15476;SDS011;7840;42.702;23.296;2023-02-15T04:45:35;33.87;;;26.23;;
15476;SDS011;7840;42.702;23.296;2023-02-15T04:48:04;33.03;;;24.63;;
15476;SDS011;7840;42.702;23.296;2023-02-15T04:50:32;32.47;;;24.87;;
15476;SDS011;7840;42.702;23.296;2023-02-15T04:53:04;34.93;;;27.20;;
15476;SDS011;7840;42.702;23.296;2023-02-15T04:55:47;33.50;;;24.60;;
15476;SDS011;7840;42.702;23.296;2023-02-15T04:58:33;32.83;;;24.83;;
15476;SDS011;7840;42.702;23.296;2023-02-15T05:01:06;33.80;;;25.23;;
15476;SDS011;7840;42.702;23.296;2023-02-15T05:03:34;32.30;;;24.57;;
15476;SDS011;7840;42.702;23.296;2023-02-15T05:06:03;33.57;;;26.17;;
15476;SDS011;7840;42.702;23.296;2023-02-15T05:08:38;33.53;;;23.93;;
15476;SDS011;7840;42.702;23.296;2023-02-15T05:11:07;33.83;;;25.67;;
15476;SDS011;7840;42.702;23.296;2023-02-15T05:13:35;33.27;;;25.47;;
15476;SDS011;7840;42.702;23.296;2023-02-15T05:16:19;35.17;;;25.13;;
15476;SDS011;7840;42.702;23.296;2023-02-15T05:18:50;34.33;;;25.53;;
15476;SDS011;7840;42.702;23.296;2023-02-15T05:21:19;32.27;;;24.67;;
15476;SDS011;7840;42.702;23.296;2023-02-15T05:23:47;34.57;;;24.67;;
15476;SDS011;7840;42.702;23.296;2023-02-15T05:26:17;35.60;;;25.63;;
15476;SDS011;7840;42.702;23.296;2023-02-15T05:29:06;32.67;;;25.00;;
15476;SDS011;7840;42.702;23.296;2023-02-15T05:31:34;36.20;;;24.93;;
15476;SDS011;7840;42.702;23.296;2023-02-15T05:34:21;33.13;;;26.40;;
15476;SDS011;7840;42.702;23.296;2023-02-15T05:36:50;32.53;;;25.53;;
15476;SDS011;7840;42.702;23.296;2023-02-15T05:39:18;32.33;;;24.20;;
15476;SDS011;7840;42.702;23.296;2023-02-15T05:41:58;33.90;;;25.50;;
15476;SDS011;7840;42.702;23.296;2023-02-15T05:45:03;30.23;;;24.10;;
15476;SDS011;7840;42.702;23.296;2023-02-15T05:47:52;34.43;;;23.93;;
15476;SDS011;7840;42.702;23.296;2023-02-15T05:53:28;32.33;;;24.20;;
15476;SDS011;7840;42.702;23.296;2023-02-15T05:55:58;31.90;;;24.23;;
15476;SDS011;7840;42.702;23.296;2023-02-15T05:58:34;31.00;;;23.63;;
15476;SDS011;7840;42.702;23.296;2023-02-15T06:01:07;28.97;;;22.60;;
15476;SDS011;7840;42.702;23.296;2023-02-15T06:03:55;32.00;;;24.10;;
15476;SDS011;7840;42.702;23.296;2023-02-15T06:06:26;32.17;;;23.77;;
15476;SDS011;7840;42.702;23.296;2023-02-15T06:08:56;30.73;;;23.87;;
15476;SDS011;7840;42.702;23.296;2023-02-15T06:11:24;33.90;;;24.37;;
15476;SDS011;7840;42.702;23.296;2023-02-15T06:13:56;33.60;;;23.27;;
15476;SDS011;7840;42.702;23.296;2023-02-15T06:16:24;33.23;;;23.77;;
15476;SDS011;7840;42.702;23.296;2023-02-15T06:18:51;33.10;;;24.23;;
15476;SDS011;7840;42.702;23.296;2023-02-15T06:21:20;36.23;;;24.57;;
15476;SDS011;7840;42.702;23.296;2023-02-15T06:23:48;34.27;;;24.47;;
15476;SDS011;7840;42.702;23.296;2023-02-15T06:29:17;35.03;;;25.40;;
15476;SDS011;7840;42.702;23.296;2023-02-15T06:31:45;30.33;;;24.43;;
15476;SDS011;7840;42.702;23.296;2023-02-15T06:34:22;33.60;;;24.33;;
15476;SDS011;7840;42.702;23.296;2023-02-15T06:47:12;30.03;;;22.23;;
15476;SDS011;7840;42.702;23.296;2023-02-15T06:49:40;29.43;;;23.27;;
15476;SDS011;7840;42.702;23.296;2023-02-15T06:52:10;26.33;;;21.10;;
15476;SDS011;7840;42.702;23.296;2023-02-15T06:54:37;28.43;;;21.37;;
15476;SDS011;7840;42.702;23.296;2023-02-15T06:57:05;26.37;;;19.50;;
15476;SDS011;7840;42.702;23.296;2023-02-15T06:59:34;25.30;;;19.90;;
15476;SDS011;7840;42.702;23.296;2023-02-15T07:02:10;25.03;;;19.03;;
15476;SDS011;7840;42.702;23.296;2023-02-15T07:04:41;26.23;;;20.43;;
15476;SDS011;7840;42.702;23.296;2023-02-15T07:07:09;22.33;;;18.57;;
15476;SDS011;7840;42.702;23.296;2023-02-15T07:09:47;25.00;;;19.10;;
15476;SDS011;7840;42.702;23.296;2023-02-15T07:12:23;26.43;;;20.60;;
15476;SDS011;7840;42.702;23.296;2023-02-15T07:25:47;24.83;;;19.07;;
15476;SDS011;7840;42.702;23.296;2023-02-15T07:28:14;24.93;;;18.43;;
15476;SDS011;7840;42.702;23.296;2023-02-15T07:30:42;25.37;;;19.47;;
15476;SDS011;7840;42.702;23.296;2023-02-15T07:33:13;24.93;;;18.90;;
15476;SDS011;7840;42.702;23.296;2023-02-15T07:35:55;26.43;;;19.00;;
15476;SDS011;7840;42.702;23.296;2023-02-15T07:38:31;23.77;;;18.67;;
15476;SDS011;7840;42.702;23.296;2023-02-15T07:41:21;25.00;;;18.73;;
15476;SDS011;7840;42.702;23.296;2023-02-15T07:43:51;24.57;;;18.73;;
15476;SDS011;7840;42.702;23.296;2023-02-15T07:46:22;24.00;;;18.33;;
15476;SDS011;7840;42.702;23.296;2023-02-15T07:48:49;22.07;;;17.60;;
15476;SDS011;7840;42.702;23.296;2023-02-15T07:51:31;26.13;;;19.17;;
15476;SDS011;7840;42.702;23.296;2023-02-15T07:54:13;24.57;;;18.63;;
15476;SDS011;7840;42.702;23.296;2023-02-15T07:59:42;24.57;;;17.90;;
15476;SDS011;7840;42.702;23.296;2023-02-15T08:02:28;25.00;;;20.07;;
15476;SDS011;7840;42.702;23.296;2023-02-15T08:05:41;25.83;;;17.97;;
15476;SDS011;7840;42.702;23.296;2023-02-15T08:08:11;26.23;;;19.43;;
15476;SDS011;7840;42.702;23.296;2023-02-15T08:11:17;22.23;;;17.53;;
15476;SDS011;7840;42.702;23.296;2023-02-15T08:13:59;23.90;;;18.13;;
15476;SDS011;7840;42.702;23.296;2023-02-15T08:16:33;22.60;;;16.53;;
15476;SDS011;7840;42.702;23.296;2023-02-15T08:19:08;23.23;;;17.73;;
15476;SDS011;7840;42.702;23.296;2023-02-15T08:21:54;24.27;;;18.37;;
15476;SDS011;7840;42.702;23.296;2023-02-15T08:24:27;26.90;;;19.17;;
15476;SDS011;7840;42.702;23.296;2023-02-15T08:26:59;25.50;;;17.93;;
15476;SDS011;7840;42.702;23.296;2023-02-15T08:29:28;23.70;;;17.17;;
15476;SDS011;7840;42.702;23.296;2023-02-15T08:31:58;22.10;;;18.27;;
15476;SDS011;7840;42.702;23.296;2023-02-15T08:35:06;25.10;;;16.83;;
15476;SDS011;7840;42.702;23.296;2023-02-15T08:37:53;20.93;;;15.70;;
15476;SDS011;7840;42.702;23.296;2023-02-15T08:40:24;21.97;;;17.50;;
15476;SDS011;7840;42.702;23.296;2023-02-15T08:42:53;21.33;;;16.37;;
15476;SDS011;7840;42.702;23.296;2023-02-15T08:45:21;23.80;;;17.53;;
15476;SDS011;7840;42.702;23.296;2023-02-15T08:47:50;22.33;;;16.77;;
15476;SDS011;7840;42.702;23.296;2023-02-15T08:50:28;20.63;;;15.23;;
15476;SDS011;7840;42.702;23.296;2023-02-15T08:52:57;21.13;;;17.93;;
15476;SDS011;7840;42.702;23.296;2023-02-15T08:55:25;20.67;;;16.30;;
15476;SDS011;7840;42.702;23.296;2023-02-15T08:58:05;23.57;;;16.67;;
15476;SDS011;7840;42.702;23.296;2023-02-15T09:00:51;21.53;;;15.87;;
15476;SDS011;7840;42.702;23.296;2023-02-15T09:03:20;21.20;;;16.63;;
15476;SDS011;7840;42.702;23.296;2023-02-15T09:05:57;22.93;;;18.23;;
15476;SDS011;7840;42.702;23.296;2023-02-15T09:08:42;23.63;;;18.37;;
15476;SDS011;7840;42.702;23.296;2023-02-15T09:11:46;20.37;;;17.57;;
15476;SDS011;7840;42.702;23.296;2023-02-15T09:14:45;22.00;;;17.00;;
15476;SDS011;7840;42.702;23.296;2023-02-15T09:17:14;21.10;;;17.73;;
15476;SDS011;7840;42.702;23.296;2023-02-15T09:19:45;21.53;;;17.53;;
15476;SDS011;7840;42.702;23.296;2023-02-15T09:22:30;20.47;;;14.90;;
15476;SDS011;7840;42.702;23.296;2023-02-15T09:25:16;19.80;;;15.13;;
15476;SDS011;7840;42.702;23.296;2023-02-15T09:27:47;18.77;;;15.97;;
15476;SDS011;7840;42.702;23.296;2023-02-15T09:30:22;21.73;;;16.53;;
15476;SDS011;7840;42.702;23.296;2023-02-15T09:32:58;19.53;;;16.00;;
15476;SDS011;7840;42.702;23.296;2023-02-15T09:35:26;23.07;;;17.13;;
15476;SDS011;7840;42.702;23.296;2023-02-15T09:38:05;20.60;;;16.73;;
15476;SDS011;7840;42.702;23.296;2023-02-15T09:40:40;20.50;;;17.73;;
15476;SDS011;7840;42.702;23.296;2023-02-15T09:43:24;20.13;;;16.93;;
15476;SDS011;7840;42.702;23.296;2023-02-15T09:49:38;19.57;;;15.87;;
15476;SDS011;7840;42.702;23.296;2023-02-15T09:52:25;19.67;;;16.07;;
15476;SDS011;7840;42.702;23.296;2023-02-15T09:55:17;24.70;;;18.93;;
15476;SDS011;7840;42.702;23.296;2023-02-15T09:58:01;20.27;;;18.07;;
15476;SDS011;7840;42.702;23.296;2023-02-15T10:00:37;21.77;;;17.67;;
15476;SDS011;7840;42.702;23.296;2023-02-15T10:03:22;21.50;;;16.57;;
15476;SDS011;7840;42.702;23.296;2023-02-15T10:06:21;21.67;;;17.73;;
15476;SDS011;7840;42.702;23.296;2023-02-15T10:12:39;20.13;;;16.07;;
15476;SDS011;7840;42.702;23.296;2023-02-15T10:15:28;18.70;;;15.63;;
15476;SDS011;7840;42.702;23.296;2023-02-15T10:18:26;17.17;;;14.93;;
15476;SDS011;7840;42.702;23.296;2023-02-15T10:21:12;23.57;;;19.30;;
15476;SDS011;7840;42.702;23.296;2023-02-15T10:29:34;21.60;;;16.70;;
15476;SDS011;7840;42.702;23.296;2023-02-15T10:32:05;21.47;;;18.83;;
15476;SDS011;7840;42.702;23.296;2023-02-15T10:35:05;20.77;;;18.37;;
15476;SDS011;7840;42.702;23.296;2023-02-15T10:37:55;21.13;;;17.87;;
15476;SDS011;7840;42.702;23.296;2023-02-15T10:40:32;19.90;;;17.73;;
15476;SDS011;7840;42.702;23.296;2023-02-15T10:43:14;22.13;;;18.83;;
15476;SDS011;7840;42.702;23.296;2023-02-15T10:46:11;20.23;;;17.43;;
15476;SDS011;7840;42.702;23.296;2023-02-15T10:48:57;24.60;;;18.10;;
15476;SDS011;7840;42.702;23.296;2023-02-15T10:51:49;22.60;;;20.10;;
15476;SDS011;7840;42.702;23.296;2023-02-15T10:54:32;21.63;;;18.33;;
15476;SDS011;7840;42.702;23.296;2023-02-15T10:57:09;21.93;;;19.53;;
15476;SDS011;7840;42.702;23.296;2023-02-15T11:00:00;22.63;;;18.97;;
15476;SDS011;7840;42.702;23.296;2023-02-15T11:02:46;21.30;;;18.80;;
15476;SDS011;7840;42.702;23.296;2023-02-15T11:05:38;23.40;;;19.27;;
15476;SDS011;7840;42.702;23.296;2023-02-15T11:08:15;21.73;;;17.97;;
15476;SDS011;7840;42.702;23.296;2023-02-15T11:10:45;22.07;;;17.43;;
15476;SDS011;7840;42.702;23.296;2023-02-15T11:13:20;20.83;;;18.63;;
15476;SDS011;7840;42.702;23.296;2023-02-15T11:16:01;22.40;;;19.40;;
15476;SDS011;7840;42.702;23.296;2023-02-15T11:18:36;23.27;;;18.57;;
15476;SDS011;7840;42.702;23.296;2023-02-15T11:21:13;26.60;;;17.83;;
15476;SDS011;7840;42.702;23.296;2023-02-15T11:23:51;23.47;;;18.90;;
15476;SDS011;7840;42.702;23.296;2023-02-15T11:31:26;23.53;;;19.50;;
15476;SDS011;7840;42.702;23.296;2023-02-15T11:34:02;23.53;;;21.03;;
15476;SDS011;7840;42.702;23.296;2023-02-15T11:36:37;22.07;;;18.00;;
15476;SDS011;7840;42.702;23.296;2023-02-15T11:39:22;22.27;;;18.83;;
15476;SDS011;7840;42.702;23.296;2023-02-15T11:41:57;21.87;;;18.57;;
15476;SDS011;7840;42.702;23.296;2023-02-15T11:44:34;20.70;;;18.47;;
15476;SDS011;7840;42.702;23.296;2023-02-15T11:47:08;18.43;;;16.43;;
15476;SDS011;7840;42.702;23.296;2023-02-15T11:49:36;23.83;;;18.27;;
15476;SDS011;7840;42.702;23.296;2023-02-15T11:52:06;20.00;;;17.87;;
15476;SDS011;7840;42.702;23.296;2023-02-15T11:54:39;22.53;;;17.80;;
15476;SDS011;7840;42.702;23.296;2023-02-15T11:57:11;24.37;;;19.60;;
15476;SDS011;7840;42.702;23.296;2023-02-15T11:59:45;21.87;;;16.83;;
15476;SDS011;7840;42.702;23.296;2023-02-15T12:02:18;24.37;;;17.43;;
15476;SDS011;7840;42.702;23.296;2023-02-15T12:04:52;20.67;;;18.37;;
15476;SDS011;7840;42.702;23.296;2023-02-15T12:07:46;21.20;;;18.37;;
15476;SDS011;7840;42.702;23.296;2023-02-15T12:10:23;21.97;;;17.53;;
15476;SDS011;7840;42.702;23.296;2023-02-15T12:13:11;20.90;;;18.17;;
15476;SDS011;7840;42.702;23.296;2023-02-15T12:15:41;19.80;;;17.23;;
15476;SDS011;7840;42.702;23.296;2023-02-15T12:18:19;20.80;;;17.40;;
15476;SDS011;7840;42.702;23.296;2023-02-15T12:21:00;18.43;;;15.33;;
15476;SDS011;7840;42.702;23.296;2023-02-15T12:23:48;23.03;;;19.30;;
15476;SDS011;7840;42.702;23.296;2023-02-15T12:26:27;22.57;;;19.07;;
15476;SDS011;7840;42.702;23.296;2023-02-15T12:29:06;23.77;;;18.23;;
15476;SDS011;7840;42.702;23.296;2023-02-15T12:31:45;21.57;;;19.23;;
15476;SDS011;7840;42.702;23.296;2023-02-15T12:34:18;21.90;;;19.47;;
15476;SDS011;7840;42.702;23.296;2023-02-15T12:36:52;21.23;;;17.93;;
15476;SDS011;7840;42.702;23.296;2023-02-15T12:42:43;21.77;;;18.33;;
15476;SDS011;7840;42.702;23.296;2023-02-15T12:45:22;19.67;;;17.53;;
15476;SDS011;7840;42.702;23.296;2023-02-15T12:48:08;21.57;;;17.70;;
15476;SDS011;7840;42.702;23.296;2023-02-15T12:50:57;21.00;;;17.10;;
15476;SDS011;7840;42.702;23.296;2023-02-15T12:53:35;20.27;;;18.13;;
15476;SDS011;7840;42.702;23.296;2023-02-15T12:56:04;20.43;;;18.33;;
15476;SDS011;7840;42.702;23.296;2023-02-15T12:59:04;19.50;;;17.40;;
15476;SDS011;7840;42.702;23.296;2023-02-15T13:01:58;22.30;;;18.50;;
15476;SDS011;7840;42.702;23.296;2023-02-15T13:04:46;22.50;;;18.27;;
15476;SDS011;7840;42.702;23.296;2023-02-15T13:07:29;19.30;;;17.27;;
15476;SDS011;7840;42.702;23.296;2023-02-15T13:10:21;20.50;;;17.70;;
15476;SDS011;7840;42.702;23.296;2023-02-15T13:12:53;21.57;;;18.80;;
15476;SDS011;7840;42.702;23.296;2023-02-15T13:15:30;22.63;;;18.60;;
15476;SDS011;7840;42.702;23.296;2023-02-15T13:18:02;26.20;;;18.93;;
15476;SDS011;7840;42.702;23.296;2023-02-15T13:20:33;19.63;;;17.53;;
15476;SDS011;7840;42.702;23.296;2023-02-15T13:23:13;20.60;;;18.50;;
15476;SDS011;7840;42.702;23.296;2023-02-15T13:36:18;20.27;;;18.17;;
15476;SDS011;7840;42.702;23.296;2023-02-15T13:39:13;22.73;;;20.33;;
15476;SDS011;7840;42.702;23.296;2023-02-15T13:41:53;20.37;;;18.17;;
15476;SDS011;7840;42.702;23.296;2023-02-15T13:44:29;20.63;;;18.43;;
15476;SDS011;7840;42.702;23.296;2023-02-15T13:47:21;22.13;;;19.73;;
15476;SDS011;7840;42.702;23.296;2023-02-15T13:50:44;21.77;;;18.33;;
15476;SDS011;7840;42.702;23.296;2023-02-15T13:53:40;21.03;;;18.73;;
15476;SDS011;7840;42.702;23.296;2023-02-15T13:56:25;24.13;;;20.00;;
15476;SDS011;7840;42.702;23.296;2023-02-15T13:59:12;21.50;;;19.33;;
15476;SDS011;7840;42.702;23.296;2023-02-15T14:01:53;25.03;;;19.37;;
15476;SDS011;7840;42.702;23.296;2023-02-15T14:04:53;20.03;;;17.50;;
15476;SDS011;7840;42.702;23.296;2023-02-15T14:07:51;22.53;;;20.07;;
15476;SDS011;7840;42.702;23.296;2023-02-15T14:10:46;21.37;;;19.13;;
15476;SDS011;7840;42.702;23.296;2023-02-15T14:13:28;22.37;;;20.10;;
15476;SDS011;7840;42.702;23.296;2023-02-15T14:16:18;22.13;;;19.70;;
15476;SDS011;7840;42.702;23.296;2023-02-15T14:18:59;21.23;;;18.47;;
15476;SDS011;7840;42.702;23.296;2023-02-15T14:24:37;22.03;;;19.67;;
15476;SDS011;7840;42.702;23.296;2023-02-15T14:27:37;22.47;;;19.93;;
15476;SDS011;7840;42.702;23.296;2023-02-15T14:30:13;22.57;;;17.70;;
15476;SDS011;7840;42.702;23.296;2023-02-15T14:32:57;22.93;;;20.60;;
15476;SDS011;7840;42.702;23.296;2023-02-15T14:35:46;20.63;;;18.13;;
15476;SDS011;7840;42.702;23.296;2023-02-15T14:38:19;22.80;;;18.73;;
15476;SDS011;7840;42.702;23.296;2023-02-15T14:40:54;21.37;;;19.00;;
15476;SDS011;7840;42.702;23.296;2023-02-15T14:43:32;21.27;;;19.00;;
15476;SDS011;7840;42.702;23.296;2023-02-15T14:46:28;21.23;;;18.67;;
15476;SDS011;7840;42.702;23.296;2023-02-15T14:49:15;22.13;;;19.73;;
15476;SDS011;7840;42.702;23.296;2023-02-15T14:51:54;23.47;;;18.30;;
15476;SDS011;7840;42.702;23.296;2023-02-15T14:54:52;20.93;;;18.30;;
15476;SDS011;7840;42.702;23.296;2023-02-15T14:57:25;22.73;;;20.33;;
15476;SDS011;7840;42.702;23.296;2023-02-15T14:59:58;23.13;;;20.63;;
15476;SDS011;7840;42.702;23.296;2023-02-15T15:02:50;22.33;;;18.53;;
15476;SDS011;7840;42.702;23.296;2023-02-15T15:05:20;21.83;;;19.47;;
15476;SDS011;7840;42.702;23.296;2023-02-15T15:07:51;22.33;;;18.63;;
15476;SDS011;7840;42.702;23.296;2023-02-15T15:10:33;21.40;;;19.20;;
15476;SDS011;7840;42.702;23.296;2023-02-15T15:16:27;20.83;;;18.63;;
15476;SDS011;7840;42.702;23.296;2023-02-15T15:19:10;21.03;;;18.83;;
15476;SDS011;7840;42.702;23.296;2023-02-15T15:22:12;21.03;;;18.73;;
15476;SDS011;7840;42.702;23.296;2023-02-15T15:24:46;23.47;;;20.60;;
15476;SDS011;7840;42.702;23.296;2023-02-15T15:36:44;24.67;;;19.70;;
15476;SDS011;7840;42.702;23.296;2023-02-15T15:39:43;26.87;;;21.03;;
15476;SDS011;7840;42.702;23.296;2023-02-15T15:42:43;28.40;;;22.23;;
15476;SDS011;7840;42.702;23.296;2023-02-15T15:48:52;27.90;;;22.97;;
15476;SDS011;7840;42.702;23.296;2023-02-15T15:51:39;27.67;;;22.00;;
15476;SDS011;7840;42.702;23.296;2023-02-15T15:54:12;30.80;;;21.70;;
15476;SDS011;7840;42.702;23.296;2023-02-15T15:56:57;26.57;;;20.03;;
15476;SDS011;7840;42.702;23.296;2023-02-15T15:59:29;33.40;;;23.93;;
15476;SDS011;7840;42.702;23.296;2023-02-15T16:02:05;29.27;;;21.87;;
15476;SDS011;7840;42.702;23.296;2023-02-15T16:48:20;29.73;;;22.27;;
15476;SDS011;7840;42.702;23.296;2023-02-15T16:51:25;27.13;;;20.43;;
15476;SDS011;7840;42.702;23.296;2023-02-15T16:53:56;31.90;;;24.30;;
15476;SDS011;7840;42.702;23.296;2023-02-15T16:56:29;27.40;;;21.60;;
15476;SDS011;7840;42.702;23.296;2023-02-15T16:58:57;28.57;;;22.60;;
15476;SDS011;7840;42.702;23.296;2023-02-15T17:01:40;29.97;;;23.90;;
15476;SDS011;7840;42.702;23.296;2023-02-15T17:04:25;28.40;;;22.23;;
15476;SDS011;7840;42.702;23.296;2023-02-15T17:07:05;27.47;;;22.17;;
15476;SDS011;7840;42.702;23.296;2023-02-15T17:09:48;28.13;;;22.37;;
15476;SDS011;7840;42.702;23.296;2023-02-15T17:12:43;28.80;;;22.13;;
15476;SDS011;7840;42.702;23.296;2023-02-15T17:15:25;27.83;;;21.63;;
15476;SDS011;7840;42.702;23.296;2023-02-15T17:17:55;28.80;;;23.03;;
15476;SDS011;7840;42.702;23.296;2023-02-15T17:20:25;29.73;;;22.40;;
15476;SDS011;7840;42.702;23.296;2023-02-15T17:22:55;30.17;;;21.57;;
15476;SDS011;7840;42.702;23.296;2023-02-15T17:25:24;56.43;;;35.97;;